sensor_id;sensor_type;location;lat;lon;timestamp;pressure;altitude;pressure_sealevel;temperature;humidity
17615;BME280;8926;49.720;6.576;2022-12-05T00:03:38;99659.78;;;3.26;86.64
17615;BME280;8926;49.720;6.576;2022-12-05T00:06:03;99662.31;;;3.28;86.91
17615;BME280;8926;49.720;6.576;2022-12-05T00:08:29;99658.00;;;3.28;86.75
17615;BME280;8926;49.720;6.576;2022-12-05T00:10:54;99658.00;;;3.28;86.90
17615;BME280;8926;49.720;6.576;2022-12-05T00:13:19;99661.47;;;3.27;86.66
17615;BME280;8926;49.720;6.576;2022-12-05T00:15:44;99669.09;;;3.32;87.03
17615;BME280;8926;49.720;6.576;2022-12-05T00:18:10;99665.63;;;3.33;86.99
17615;BME280;8926;49.720;6.576;2022-12-05T00:20:35;99663.97;;;3.30;86.68
17615;BME280;8926;49.720;6.576;2022-12-05T00:23:00;99668.25;;;3.31;86.71
17615;BME280;8926;49.720;6.576;2022-12-05T00:25:26;99669.19;;;3.29;87.02
17615;BME280;8926;49.720;6.576;2022-12-05T00:27:51;99683.00;;;3.26;86.93
17615;BME280;8926;49.720;6.576;2022-12-05T00:30:17;99679.53;;;3.27;87.84
17615;BME280;8926;49.720;6.576;2022-12-05T00:32:42;99690.84;;;3.23;88.58
17615;BME280;8926;49.720;6.576;2022-12-05T00:35:08;99690.13;;;3.18;88.99
17615;BME280;8926;49.720;6.576;2022-12-05T00:37:33;99685.84;;;3.17;88.14
17615;BME280;8926;49.720;6.576;2022-12-05T00:39:58;99681.75;;;3.10;87.98
17615;BME280;8926;49.720;6.576;2022-12-05T00:42:23;99679.19;;;3.10;89.09
17615;BME280;8926;49.720;6.576;2022-12-05T00:44:49;99673.13;;;3.11;91.16
17615;BME280;8926;49.720;6.576;2022-12-05T00:47:14;99669.63;;;3.12;91.50
17615;BME280;8926;49.720;6.576;2022-12-05T00:49:40;99669.53;;;3.15;92.31
17615;BME280;8926;49.720;6.576;2022-12-05T00:52:05;99673.75;;;3.19;92.94
17615;BME280;8926;49.720;6.576;2022-12-05T00:54:30;99668.53;;;3.21;93.28
17615;BME280;8926;49.720;6.576;2022-12-05T00:56:56;99666.88;;;3.18;93.30
17615;BME280;8926;49.720;6.576;2022-12-05T00:59:22;99665.09;;;3.20;92.98
17615;BME280;8926;49.720;6.576;2022-12-05T01:01:49;99667.72;;;3.19;93.69
17615;BME280;8926;49.720;6.576;2022-12-05T01:04:24;99661.72;;;3.18;93.57
17615;BME280;8926;49.720;6.576;2022-12-05T01:06:50;99672.03;;;3.18;93.38
17615;BME280;8926;49.720;6.576;2022-12-05T01:09:19;99667.66;;;3.22;94.33
17615;BME280;8926;49.720;6.576;2022-12-05T01:11:44;99675.44;;;3.20;94.31
17615;BME280;8926;49.720;6.576;2022-12-05T01:14:12;99666.03;;;3.18;94.24
17615;BME280;8926;49.720;6.576;2022-12-05T01:16:40;99658.34;;;3.16;94.87
17615;BME280;8926;49.720;6.576;2022-12-05T01:19:10;99663.41;;;3.19;94.19
17615;BME280;8926;49.720;6.576;2022-12-05T01:21:36;99670.19;;;3.23;95.08
17615;BME280;8926;49.720;6.576;2022-12-05T01:24:01;99678.81;;;3.22;95.21
17615;BME280;8926;49.720;6.576;2022-12-05T01:26:26;99674.50;;;3.23;94.17
17615;BME280;8926;49.720;6.576;2022-12-05T01:28:52;99671.97;;;3.21;95.03
17615;BME280;8926;49.720;6.576;2022-12-05T01:31:22;99678.97;;;3.16;95.21
17615;BME280;8926;49.720;6.576;2022-12-05T01:33:48;99675.59;;;3.14;94.68
17615;BME280;8926;49.720;6.576;2022-12-05T01:36:14;99677.28;;;3.15;95.49
17615;BME280;8926;49.720;6.576;2022-12-05T01:38:40;99674.66;;;3.17;95.30
17615;BME280;8926;49.720;6.576;2022-12-05T01:41:10;99679.81;;;3.17;93.30
17615;BME280;8926;49.720;6.576;2022-12-05T01:43:56;99680.75;;;3.14;94.27
17615;BME280;8926;49.720;6.576;2022-12-05T01:46:23;99685.91;;;3.14;94.64
17615;BME280;8926;49.720;6.576;2022-12-05T01:48:49;99685.84;;;3.17;94.55
17615;BME280;8926;49.720;6.576;2022-12-05T01:51:16;99694.38;;;3.19;95.73
17615;BME280;8926;49.720;6.576;2022-12-05T01:53:42;99699.56;;;3.19;95.68
17615;BME280;8926;49.720;6.576;2022-12-05T01:56:08;99703.88;;;3.19;96.19
17615;BME280;8926;49.720;6.576;2022-12-05T01:58:36;99693.50;;;3.20;95.99
17615;BME280;8926;49.720;6.576;2022-12-05T02:01:02;99694.47;;;3.16;95.58
17615;BME280;8926;49.720;6.576;2022-12-05T02:03:27;99702.16;;;3.18;96.62
17615;BME280;8926;49.720;6.576;2022-12-05T02:05:53;99705.69;;;3.15;96.49
17615;BME280;8926;49.720;6.576;2022-12-05T02:08:21;99705.56;;;3.20;96.51
17615;BME280;8926;49.720;6.576;2022-12-05T02:10:52;99702.13;;;3.19;96.14
17615;BME280;8926;49.720;6.576;2022-12-05T02:19:04;99695.19;;;3.21;97.01
17615;BME280;8926;49.720;6.576;2022-12-05T02:21:53;99704.72;;;3.19;96.95
17615;BME280;8926;49.720;6.576;2022-12-05T02:30:15;99702.84;;;3.24;97.27
17615;BME280;8926;49.720;6.576;2022-12-05T02:35:52;99687.53;;;3.18;97.26
17615;BME280;8926;49.720;6.576;2022-12-05T02:41:37;99673.66;;;3.22;97.55
17615;BME280;8926;49.720;6.576;2022-12-05T02:44:08;99676.16;;;3.25;97.40
17615;BME280;8926;49.720;6.576;2022-12-05T02:46:39;99683.09;;;3.23;97.37
17615;BME280;8926;49.720;6.576;2022-12-05T02:49:11;99679.63;;;3.24;97.77
17615;BME280;8926;49.720;6.576;2022-12-05T02:51:44;99678.91;;;3.19;97.85
17615;BME280;8926;49.720;6.576;2022-12-05T02:54:14;99676.31;;;3.19;97.98
17615;BME280;8926;49.720;6.576;2022-12-05T02:56:43;99675.34;;;3.23;97.99
17615;BME280;8926;49.720;6.576;2022-12-05T02:59:08;99671.13;;;3.21;98.08
17615;BME280;8926;49.720;6.576;2022-12-05T03:01:34;99669.38;;;3.21;98.31
17615;BME280;8926;49.720;6.576;2022-12-05T03:04:02;99668.50;;;3.22;97.25
17615;BME280;8926;49.720;6.576;2022-12-05T03:06:44;99671.97;;;3.21;97.07
17615;BME280;8926;49.720;6.576;2022-12-05T03:09:15;99670.28;;;3.20;97.56
17615;BME280;8926;49.720;6.576;2022-12-05T03:11:46;99676.28;;;3.21;97.52
17615;BME280;8926;49.720;6.576;2022-12-05T03:14:21;99687.44;;;3.21;97.67
17615;BME280;8926;49.720;6.576;2022-12-05T03:16:50;99687.28;;;3.27;96.86
17615;BME280;8926;49.720;6.576;2022-12-05T03:19:41;99687.28;;;3.27;97.31
17615;BME280;8926;49.720;6.576;2022-12-05T03:22:17;99682.22;;;3.24;97.24
17615;BME280;8926;49.720;6.576;2022-12-05T03:24:45;99680.44;;;3.26;97.94
17615;BME280;8926;49.720;6.576;2022-12-05T03:27:32;99680.44;;;3.26;97.64
17615;BME280;8926;49.720;6.576;2022-12-05T03:30:09;99682.03;;;3.30;97.68
17615;BME280;8926;49.720;6.576;2022-12-05T03:32:41;99694.16;;;3.28;97.95
17615;BME280;8926;49.720;6.576;2022-12-05T03:35:22;99704.47;;;3.28;97.89
17615;BME280;8926;49.720;6.576;2022-12-05T03:38:11;99702.78;;;3.27;97.69
17615;BME280;8926;49.720;6.576;2022-12-05T03:40:43;99706.03;;;3.34;97.70
17615;BME280;8926;49.720;6.576;2022-12-05T03:45:54;99701.53;;;3.40;97.54
17615;BME280;8926;49.720;6.576;2022-12-05T03:48:46;99710.97;;;3.41;98.09
17615;BME280;8926;49.720;6.576;2022-12-05T03:51:17;99717.00;;;3.40;97.99
17615;BME280;8926;49.720;6.576;2022-12-05T03:54:10;99711.16;;;3.35;97.10
17615;BME280;8926;49.720;6.576;2022-12-05T03:56:45;99712.75;;;3.39;97.33
17615;BME280;8926;49.720;6.576;2022-12-05T03:59:25;99709.38;;;3.37;97.11
17615;BME280;8926;49.720;6.576;2022-12-05T04:01:52;99718.78;;;3.38;97.13
17615;BME280;8926;49.720;6.576;2022-12-05T04:04:29;99719.78;;;3.34;96.36
17615;BME280;8926;49.720;6.576;2022-12-05T04:07:00;99711.25;;;3.32;96.26
17615;BME280;8926;49.720;6.576;2022-12-05T04:09:37;99709.47;;;3.34;96.28
17615;BME280;8926;49.720;6.576;2022-12-05T04:12:11;99709.44;;;3.36;96.29
17615;BME280;8926;49.720;6.576;2022-12-05T04:14:42;99714.44;;;3.40;96.09
17615;BME280;8926;49.720;6.576;2022-12-05T04:17:29;99716.97;;;3.42;95.52
17615;BME280;8926;49.720;6.576;2022-12-05T04:20:00;99716.97;;;3.42;95.70
17615;BME280;8926;49.720;6.576;2022-12-05T04:22:46;99721.22;;;3.45;94.54
17615;BME280;8926;49.720;6.576;2022-12-05T04:25:12;99722.91;;;3.46;94.18
17615;BME280;8926;49.720;6.576;2022-12-05T04:28:19;99714.19;;;3.50;93.17
17615;BME280;8926;49.720;6.576;2022-12-05T04:41:05;99767.84;;;3.38;90.63
17615;BME280;8926;49.720;6.576;2022-12-05T04:43:36;99760.94;;;3.39;91.56
17615;BME280;8926;49.720;6.576;2022-12-05T04:46:05;99754.06;;;3.39;91.78
17615;BME280;8926;49.720;6.576;2022-12-05T04:48:34;99762.59;;;3.41;92.64
17615;BME280;8926;49.720;6.576;2022-12-05T04:51:02;99761.69;;;3.44;93.45
17615;BME280;8926;49.720;6.576;2022-12-05T04:53:29;99759.13;;;3.42;92.76
17615;BME280;8926;49.720;6.576;2022-12-05T04:55:58;99757.31;;;3.46;92.99
17615;BME280;8926;49.720;6.576;2022-12-05T04:58:25;99761.56;;;3.49;93.18
17615;BME280;8926;49.720;6.576;2022-12-05T05:01:09;99765.66;;;3.56;93.18
17615;BME280;8926;49.720;6.576;2022-12-05T05:03:51;99760.22;;;3.65;93.85
17615;BME280;8926;49.720;6.576;2022-12-05T05:06:18;99757.47;;;3.71;92.89
17615;BME280;8926;49.720;6.576;2022-12-05T05:08:51;99761.59;;;3.78;92.68
17615;BME280;8926;49.720;6.576;2022-12-05T05:11:22;99758.91;;;3.81;92.45
17615;BME280;8926;49.720;6.576;2022-12-05T05:13:48;99757.13;;;3.83;92.07
17615;BME280;8926;49.720;6.576;2022-12-05T05:16:16;99764.00;;;3.84;91.79
17615;BME280;8926;49.720;6.576;2022-12-05T05:18:48;99760.44;;;3.88;92.04
17615;BME280;8926;49.720;6.576;2022-12-05T05:23:47;99756.03;;;3.90;90.06
17615;BME280;8926;49.720;6.576;2022-12-05T05:26:13;99763.97;;;3.86;90.13
17615;BME280;8926;49.720;6.576;2022-12-05T05:28:39;99767.47;;;3.83;89.59
17615;BME280;8926;49.720;6.576;2022-12-05T05:31:04;99766.75;;;3.78;89.88
17615;BME280;8926;49.720;6.576;2022-12-05T05:33:31;99763.44;;;3.73;89.62
17615;BME280;8926;49.720;6.576;2022-12-05T05:35:56;99763.44;;;3.73;89.48
17615;BME280;8926;49.720;6.576;2022-12-05T05:38:25;99772.09;;;3.72;89.42
17615;BME280;8926;49.720;6.576;2022-12-05T05:40:50;99767.75;;;3.72;89.87
17615;BME280;8926;49.720;6.576;2022-12-05T05:43:16;99766.06;;;3.71;89.54
17615;BME280;8926;49.720;6.576;2022-12-05T05:45:41;99761.75;;;3.72;89.17
17615;BME280;8926;49.720;6.576;2022-12-05T05:48:06;99762.50;;;3.75;89.56
17615;BME280;8926;49.720;6.576;2022-12-05T05:50:31;99772.88;;;3.74;89.82
17615;BME280;8926;49.720;6.576;2022-12-05T05:52:57;99776.44;;;3.70;89.55
17615;BME280;8926;49.720;6.576;2022-12-05T05:55:22;99787.66;;;3.69;89.18
17615;BME280;8926;49.720;6.576;2022-12-05T05:57:47;99788.56;;;3.68;89.38
17615;BME280;8926;49.720;6.576;2022-12-05T06:00:13;99790.28;;;3.67;89.47
17615;BME280;8926;49.720;6.576;2022-12-05T06:02:39;99796.31;;;3.68;89.28
17615;BME280;8926;49.720;6.576;2022-12-05T06:05:04;99801.50;;;3.66;89.46
17615;BME280;8926;49.720;6.576;2022-12-05T06:07:29;99806.63;;;3.68;88.67
17615;BME280;8926;49.720;6.576;2022-12-05T06:09:55;99808.41;;;3.66;89.40
17615;BME280;8926;49.720;6.576;2022-12-05T06:12:21;99811.81;;;3.68;89.52
17615;BME280;8926;49.720;6.576;2022-12-05T06:14:47;99804.94;;;3.67;89.34
17615;BME280;8926;49.720;6.576;2022-12-05T06:17:13;99806.72;;;3.65;89.34
17615;BME280;8926;49.720;6.576;2022-12-05T06:19:38;99804.97;;;3.65;89.69
17615;BME280;8926;49.720;6.576;2022-12-05T06:22:04;99817.06;;;3.65;88.96
17615;BME280;8926;49.720;6.576;2022-12-05T06:24:29;99815.34;;;3.64;89.81
17615;BME280;8926;49.720;6.576;2022-12-05T06:26:54;99818.75;;;3.66;89.87
17615;BME280;8926;49.720;6.576;2022-12-05T06:29:19;99816.19;;;3.64;89.81
17615;BME280;8926;49.720;6.576;2022-12-05T06:31:45;99811.03;;;3.64;89.44
17615;BME280;8926;49.720;6.576;2022-12-05T06:34:10;99812.72;;;3.65;88.92
17615;BME280;8926;49.720;6.576;2022-12-05T06:36:35;99810.31;;;3.61;89.26
17615;BME280;8926;49.720;6.576;2022-12-05T06:39:00;99807.84;;;3.56;88.72
17615;BME280;8926;49.720;6.576;2022-12-05T06:41:26;99815.56;;;3.58;89.83
17615;BME280;8926;49.720;6.576;2022-12-05T06:43:56;99821.53;;;3.60;90.27
17615;BME280;8926;49.720;6.576;2022-12-05T06:46:23;99824.94;;;3.60;89.51
17615;BME280;8926;49.720;6.576;2022-12-05T06:48:52;99820.63;;;3.61;89.22
17615;BME280;8926;49.720;6.576;2022-12-05T06:51:17;99829.34;;;3.57;89.15
17615;BME280;8926;49.720;6.576;2022-12-05T06:53:43;99833.66;;;3.56;89.48
17615;BME280;8926;49.720;6.576;2022-12-05T06:56:11;99830.25;;;3.56;89.24
17615;BME280;8926;49.720;6.576;2022-12-05T06:58:37;99834.66;;;3.51;89.85
17615;BME280;8926;49.720;6.576;2022-12-05T07:01:03;99834.59;;;3.54;89.74
17615;BME280;8926;49.720;6.576;2022-12-05T07:03:47;99849.94;;;3.60;89.30
17615;BME280;8926;49.720;6.576;2022-12-05T07:06:13;99846.34;;;3.64;89.90
17615;BME280;8926;49.720;6.576;2022-12-05T07:08:39;99846.47;;;3.61;89.09
17615;BME280;8926;49.720;6.576;2022-12-05T07:11:06;99849.97;;;3.58;89.48
17615;BME280;8926;49.720;6.576;2022-12-05T07:13:31;99854.28;;;3.58;89.49
17615;BME280;8926;49.720;6.576;2022-12-05T07:15:56;99849.94;;;3.60;89.54
17615;BME280;8926;49.720;6.576;2022-12-05T07:18:25;99859.53;;;3.55;89.03
17615;BME280;8926;49.720;6.576;2022-12-05T07:20:58;99860.34;;;3.57;89.96
17615;BME280;8926;49.720;6.576;2022-12-05T07:23:24;99855.19;;;3.57;88.67
17615;BME280;8926;49.720;6.576;2022-12-05T07:25:49;99855.19;;;3.57;88.53
17615;BME280;8926;49.720;6.576;2022-12-05T07:28:14;99858.56;;;3.59;89.69
17615;BME280;8926;49.720;6.576;2022-12-05T07:30:40;99858.50;;;3.62;89.42
17615;BME280;8926;49.720;6.576;2022-12-05T07:33:05;99856.69;;;3.64;89.38
17615;BME280;8926;49.720;6.576;2022-12-05T07:35:30;99858.38;;;3.65;89.07
17615;BME280;8926;49.720;6.576;2022-12-05T07:37:55;99859.19;;;3.67;89.48
17615;BME280;8926;49.720;6.576;2022-12-05T07:40:21;99860.06;;;3.66;90.18
17615;BME280;8926;49.720;6.576;2022-12-05T07:42:49;99860.97;;;3.65;90.20
17615;BME280;8926;49.720;6.576;2022-12-05T07:45:14;99858.38;;;3.65;91.04
17615;BME280;8926;49.720;6.576;2022-12-05T07:47:40;99866.09;;;3.66;90.93
17615;BME280;8926;49.720;6.576;2022-12-05T07:50:05;99870.34;;;3.69;92.33
17615;BME280;8926;49.720;6.576;2022-12-05T07:52:31;99870.25;;;3.72;92.83
17615;BME280;8926;49.720;6.576;2022-12-05T07:54:56;99875.47;;;3.70;93.51
17615;BME280;8926;49.720;6.576;2022-12-05T07:57:22;99878.00;;;3.72;94.31
17615;BME280;8926;49.720;6.576;2022-12-05T07:59:47;99871.06;;;3.74;93.39
17615;BME280;8926;49.720;6.576;2022-12-05T08:02:13;99871.09;;;3.72;93.75
17615;BME280;8926;49.720;6.576;2022-12-05T08:04:38;99873.72;;;3.71;94.86
17615;BME280;8926;49.720;6.576;2022-12-05T08:07:03;99878.88;;;3.71;95.22
17615;BME280;8926;49.720;6.576;2022-12-05T08:09:29;99885.84;;;3.69;95.31
17615;BME280;8926;49.720;6.576;2022-12-05T08:11:54;99885.84;;;3.69;95.72
17615;BME280;8926;49.720;6.576;2022-12-05T08:14:19;99890.13;;;3.70;95.40
17615;BME280;8926;49.720;6.576;2022-12-05T08:16:45;99892.69;;;3.70;95.51
17615;BME280;8926;49.720;6.576;2022-12-05T08:19:11;99894.41;;;3.71;96.47
17615;BME280;8926;49.720;6.576;2022-12-05T08:21:41;99897.78;;;3.73;96.58
17615;BME280;8926;49.720;6.576;2022-12-05T08:24:07;99900.41;;;3.71;96.34
17615;BME280;8926;49.720;6.576;2022-12-05T08:26:34;99892.53;;;3.76;96.22
17615;BME280;8926;49.720;6.576;2022-12-05T08:29:03;99902.78;;;3.79;97.03
17615;BME280;8926;49.720;6.576;2022-12-05T08:31:31;99901.09;;;3.78;96.85
17615;BME280;8926;49.720;6.576;2022-12-05T08:33:58;99909.69;;;3.79;97.10
17615;BME280;8926;49.720;6.576;2022-12-05T08:36:24;99907.97;;;3.79;97.32
17615;BME280;8926;49.720;6.576;2022-12-05T08:38:55;99911.34;;;3.81;96.34
17615;BME280;8926;49.720;6.576;2022-12-05T08:41:20;99909.59;;;3.83;96.73
17615;BME280;8926;49.720;6.576;2022-12-05T08:43:46;99906.13;;;3.84;97.12
17615;BME280;8926;49.720;6.576;2022-12-05T08:46:11;99906.16;;;3.83;96.62
17615;BME280;8926;49.720;6.576;2022-12-05T08:48:37;99912.97;;;3.85;96.87
17615;BME280;8926;49.720;6.576;2022-12-05T08:51:07;99918.16;;;3.85;96.64
17615;BME280;8926;49.720;6.576;2022-12-05T08:53:34;99919.84;;;3.86;97.36
17615;BME280;8926;49.720;6.576;2022-12-05T08:56:04;99921.53;;;3.87;97.20
17615;BME280;8926;49.720;6.576;2022-12-05T08:58:30;99928.28;;;3.91;97.78
17615;BME280;8926;49.720;6.576;2022-12-05T09:01:09;99930.00;;;3.92;97.39
17615;BME280;8926;49.720;6.576;2022-12-05T09:03:35;99927.44;;;3.91;97.86
17615;BME280;8926;49.720;6.576;2022-12-05T09:06:12;99926.56;;;3.92;98.17
17615;BME280;8926;49.720;6.576;2022-12-05T09:08:39;99933.38;;;3.94;97.86
17615;BME280;8926;49.720;6.576;2022-12-05T09:11:11;99926.50;;;3.93;96.86
17615;BME280;8926;49.720;6.576;2022-12-05T09:13:37;99943.72;;;3.94;97.61
17615;BME280;8926;49.720;6.576;2022-12-05T09:18:30;99951.34;;;3.99;96.90
17615;BME280;8926;49.720;6.576;2022-12-05T09:20:56;99947.03;;;3.99;96.08
17615;BME280;8926;49.720;6.576;2022-12-05T09:23:21;99944.38;;;4.02;97.35
17615;BME280;8926;49.720;6.576;2022-12-05T09:25:52;99940.00;;;4.04;96.49
17615;BME280;8926;49.720;6.576;2022-12-05T09:28:20;99943.47;;;4.03;96.83
17615;BME280;8926;49.720;6.576;2022-12-05T09:31:04;99939.03;;;4.08;97.46
17615;BME280;8926;49.720;6.576;2022-12-05T09:33:31;99939.84;;;4.11;96.85
17615;BME280;8926;49.720;6.576;2022-12-05T09:35:56;99945.84;;;4.13;97.31
17615;BME280;8926;49.720;6.576;2022-12-05T09:38:22;99947.53;;;4.14;97.25
17615;BME280;8926;49.720;6.576;2022-12-05T09:41:04;99950.91;;;4.16;96.29
17615;BME280;8926;49.720;6.576;2022-12-05T09:43:48;99954.19;;;4.21;97.68
17615;BME280;8926;49.720;6.576;2022-12-05T09:47:27;99954.94;;;4.26;96.80
17615;BME280;8926;49.720;6.576;2022-12-05T09:49:23;99957.44;;;4.29;96.68
17615;BME280;8926;49.720;6.576;2022-12-05T09:51:49;99954.00;;;4.28;97.00
17615;BME280;8926;49.720;6.576;2022-12-05T09:54:16;99965.09;;;4.32;96.06
17615;BME280;8926;49.720;6.576;2022-12-05T09:56:43;99959.84;;;4.35;95.61
17615;BME280;8926;49.720;6.576;2022-12-05T09:59:13;99961.47;;;4.39;94.91
17615;BME280;8926;49.720;6.576;2022-12-05T10:01:56;99955.28;;;4.43;93.36
17615;BME280;8926;49.720;6.576;2022-12-05T10:04:50;99955.28;;;4.43;93.69
17615;BME280;8926;49.720;6.576;2022-12-05T10:10:13;99956.31;;;4.39;91.22
17615;BME280;8926;49.720;6.576;2022-12-05T10:15:39;99954.41;;;4.44;91.23
17615;BME280;8926;49.720;6.576;2022-12-05T10:20:47;99950.69;;;4.54;90.40
17615;BME280;8926;49.720;6.576;2022-12-05T10:23:21;99946.31;;;4.56;91.28
17615;BME280;8926;49.720;6.576;2022-12-05T10:25:54;99950.50;;;4.60;90.79
17615;BME280;8926;49.720;6.576;2022-12-05T10:28:29;99950.50;;;4.60;90.97
17615;BME280;8926;49.720;6.576;2022-12-05T10:31:00;99952.13;;;4.64;90.03
17615;BME280;8926;49.720;6.576;2022-12-05T10:33:31;99950.41;;;4.63;90.04
17615;BME280;8926;49.720;6.576;2022-12-05T10:35:58;99952.03;;;4.67;89.72
17615;BME280;8926;49.720;6.576;2022-12-05T10:38:30;99948.63;;;4.65;89.64
17615;BME280;8926;49.720;6.576;2022-12-05T10:41:09;99937.22;;;4.71;90.17
17615;BME280;8926;49.720;6.576;2022-12-05T10:43:36;99955.31;;;4.72;90.26
17615;BME280;8926;49.720;6.576;2022-12-05T10:46:03;99943.94;;;4.78;89.82
17615;BME280;8926;49.720;6.576;2022-12-05T10:48:29;99948.34;;;4.74;89.04
17615;BME280;8926;49.720;6.576;2022-12-05T10:50:58;99943.25;;;4.71;89.32
17615;BME280;8926;49.720;6.576;2022-12-05T10:53:46;99939.78;;;4.72;89.58
17615;BME280;8926;49.720;6.576;2022-12-05T10:56:46;99945.63;;;4.79;89.88
17615;BME280;8926;49.720;6.576;2022-12-05T10:59:24;99939.50;;;4.82;90.85
17615;BME280;8926;49.720;6.576;2022-12-05T11:01:55;99943.75;;;4.84;89.85
17615;BME280;8926;49.720;6.576;2022-12-05T11:06:52;99936.03;;;4.83;89.76
17615;BME280;8926;49.720;6.576;2022-12-05T11:09:21;99929.16;;;4.82;90.26
17615;BME280;8926;49.720;6.576;2022-12-05T11:14:24;99930.69;;;4.89;90.25
17615;BME280;8926;49.720;6.576;2022-12-05T11:16:53;99936.66;;;4.91;90.42
17615;BME280;8926;49.720;6.576;2022-12-05T11:19:25;99939.25;;;4.91;90.25
17615;BME280;8926;49.720;6.576;2022-12-05T11:21:52;99938.44;;;4.89;89.99
17615;BME280;8926;49.720;6.576;2022-12-05T11:24:35;99931.47;;;4.91;89.92
17615;BME280;8926;49.720;6.576;2022-12-05T11:32:28;99936.84;;;4.85;90.66
17615;BME280;8926;49.720;6.576;2022-12-05T11:37:36;99925.59;;;4.86;90.27
17615;BME280;8926;49.720;6.576;2022-12-05T11:40:12;99920.31;;;4.89;90.12
17615;BME280;8926;49.720;6.576;2022-12-05T11:50:51;99918.41;;;4.94;91.23
17615;BME280;8926;49.720;6.576;2022-12-05T11:53:41;99908.78;;;4.99;91.12
17615;BME280;8926;49.720;6.576;2022-12-05T12:02:17;99907.66;;;5.07;90.74
17615;BME280;8926;49.720;6.576;2022-12-05T12:04:49;99905.72;;;5.14;90.79
17615;BME280;8926;49.720;6.576;2022-12-05T12:07:38;99906.50;;;5.16;90.88
17615;BME280;8926;49.720;6.576;2022-12-05T12:10:27;99905.63;;;5.17;89.53
17615;BME280;8926;49.720;6.576;2022-12-05T12:16:12;99914.06;;;5.22;90.10
17615;BME280;8926;49.720;6.576;2022-12-05T12:22:00;99914.19;;;5.19;91.10
17615;BME280;8926;49.720;6.576;2022-12-05T12:24:57;99916.81;;;5.18;89.91
17615;BME280;8926;49.720;6.576;2022-12-05T12:27:42;99923.78;;;5.16;90.48
17615;BME280;8926;49.720;6.576;2022-12-05T12:30:23;99918.72;;;5.13;91.00
17615;BME280;8926;49.720;6.576;2022-12-05T12:33:01;99926.53;;;5.11;92.75
17615;BME280;8926;49.720;6.576;2022-12-05T12:40:52;99919.47;;;5.16;92.83
17615;BME280;8926;49.720;6.576;2022-12-05T12:43:40;99921.25;;;5.14;92.29
17615;BME280;8926;49.720;6.576;2022-12-05T12:46:29;99922.84;;;5.18;93.09
17615;BME280;8926;49.720;6.576;2022-12-05T12:52:04;99921.16;;;5.17;93.11
17615;BME280;8926;49.720;6.576;2022-12-05T12:57:18;99923.56;;;5.22;92.75
17615;BME280;8926;49.720;6.576;2022-12-05T13:02:44;99917.44;;;5.24;92.08
17615;BME280;8926;49.720;6.576;2022-12-05T13:05:20;99910.47;;;5.26;92.28
17615;BME280;8926;49.720;6.576;2022-12-05T13:07:52;99920.00;;;5.26;92.33
17615;BME280;8926;49.720;6.576;2022-12-05T13:10:26;99922.53;;;5.27;92.17
17615;BME280;8926;49.720;6.576;2022-12-05T13:12:56;99920.75;;;5.29;92.67
17615;BME280;8926;49.720;6.576;2022-12-05T13:15:32;99913.78;;;5.31;91.77
17615;BME280;8926;49.720;6.576;2022-12-05T13:18:01;99920.56;;;5.35;92.35
17615;BME280;8926;49.720;6.576;2022-12-05T13:20:31;99917.91;;;5.37;93.38
17615;BME280;8926;49.720;6.576;2022-12-05T13:22:57;99905.75;;;5.39;92.82
17615;BME280;8926;49.720;6.576;2022-12-05T13:25:28;99912.59;;;5.41;92.53
17615;BME280;8926;49.720;6.576;2022-12-05T13:28:00;99905.66;;;5.42;92.08
17615;BME280;8926;49.720;6.576;2022-12-05T13:30:27;99909.06;;;5.44;92.93
17615;BME280;8926;49.720;6.576;2022-12-05T13:32:57;99910.66;;;5.46;92.92
17615;BME280;8926;49.720;6.576;2022-12-05T13:35:32;99914.94;;;5.47;93.33
17615;BME280;8926;49.720;6.576;2022-12-05T13:38:31;99913.25;;;5.46;93.71
17615;BME280;8926;49.720;6.576;2022-12-05T13:41:17;99909.91;;;5.44;94.44
17615;BME280;8926;49.720;6.576;2022-12-05T13:44:01;99913.38;;;5.43;94.91
17615;BME280;8926;49.720;6.576;2022-12-05T13:46:38;99916.44;;;5.55;96.14
17615;BME280;8926;49.720;6.576;2022-12-05T13:49:13;99916.09;;;5.65;97.06
17615;BME280;8926;49.720;6.576;2022-12-05T13:51:42;99913.16;;;5.74;97.40
17615;BME280;8926;49.720;6.576;2022-12-05T13:54:15;99913.91;;;5.78;97.77
17615;BME280;8926;49.720;6.576;2022-12-05T13:56:52;99917.09;;;5.86;97.79
17615;BME280;8926;49.720;6.576;2022-12-05T14:07:43;99913.19;;;5.99;96.98
17615;BME280;8926;49.720;6.576;2022-12-05T14:10:12;99921.31;;;5.90;96.04
17615;BME280;8926;49.720;6.576;2022-12-05T14:12:56;99920.69;;;5.82;96.03
17615;BME280;8926;49.720;6.576;2022-12-05T14:15:43;99922.59;;;5.77;96.31
17615;BME280;8926;49.720;6.576;2022-12-05T14:21:26;99926.09;;;5.76;96.79
17615;BME280;8926;49.720;6.576;2022-12-05T14:32:46;99937.56;;;5.69;96.16
17615;BME280;8926;49.720;6.576;2022-12-05T14:35:25;99940.16;;;5.69;96.46
17615;BME280;8926;49.720;6.576;2022-12-05T14:37:56;99936.78;;;5.67;96.35
17615;BME280;8926;49.720;6.576;2022-12-05T14:40:30;99938.47;;;5.68;96.32
17615;BME280;8926;49.720;6.576;2022-12-05T14:43:03;99936.78;;;5.67;96.83
17615;BME280;8926;49.720;6.576;2022-12-05T14:45:34;99938.56;;;5.65;96.70
17615;BME280;8926;49.720;6.576;2022-12-05T14:50:46;99940.31;;;5.64;97.03
17615;BME280;8926;49.720;6.576;2022-12-05T14:56:03;99941.03;;;5.69;96.88
17615;BME280;8926;49.720;6.576;2022-12-05T14:58:43;99929.66;;;5.72;96.54
17615;BME280;8926;49.720;6.576;2022-12-05T15:01:31;99941.72;;;5.73;96.11
17615;BME280;8926;49.720;6.576;2022-12-05T15:06:46;99951.25;;;5.72;94.93
17615;BME280;8926;49.720;6.576;2022-12-05T15:12:22;99948.63;;;5.74;94.95
17615;BME280;8926;49.720;6.576;2022-12-05T15:15:02;99945.22;;;5.72;94.79
17615;BME280;8926;49.720;6.576;2022-12-05T15:17:46;99948.63;;;5.74;94.13
17615;BME280;8926;49.720;6.576;2022-12-05T15:20:41;99955.50;;;5.75;93.96
17615;BME280;8926;49.720;6.576;2022-12-05T15:28:36;99954.69;;;5.73;93.47
17615;BME280;8926;49.720;6.576;2022-12-05T15:31:02;99952.91;;;5.75;92.69
17615;BME280;8926;49.720;6.576;2022-12-05T15:33:28;99952.91;;;5.75;92.80
17615;BME280;8926;49.720;6.576;2022-12-05T15:35:54;99952.91;;;5.75;93.25
17615;BME280;8926;49.720;6.576;2022-12-05T15:38:25;99958.88;;;5.77;93.28
17615;BME280;8926;49.720;6.576;2022-12-05T15:40:52;99957.19;;;5.76;92.51
17615;BME280;8926;49.720;6.576;2022-12-05T15:43:32;99959.81;;;5.74;92.73
17615;BME280;8926;49.720;6.576;2022-12-05T15:46:20;99952.91;;;5.75;93.38
17615;BME280;8926;49.720;6.576;2022-12-05T15:48:48;99953.78;;;5.74;93.49
17615;BME280;8926;49.720;6.576;2022-12-05T15:51:13;99953.78;;;5.74;93.80
17615;BME280;8926;49.720;6.576;2022-12-05T15:53:42;99956.38;;;5.74;93.42